AirNav   TITAN Aviation Fuels
 
 1476 users online  

9M4 Ackerman Choctaw County Airport
Ackerman, Mississippi, USA

GOING TO ACKERMAN?


FAA INFORMATION EFFECTIVE 16 JUNE 2022

Location

FAA Identifier: 9M4
Lat/Long: 33-18-12.4470N 089-13-42.2410W
33-18.207450N 089-13.704017W
33.3034575,-89.2284003
(estimated)
Elevation: 552 ft. / 168.2 m (surveyed)
Variation: 02E (1985)
From city: 3 miles W of ACKERMAN, MS
Time zone: UTC -5 (UTC -6 during Standard Time)
Zip code: 39735

Airport Operations

Airport use: Open to the public
Activation date: 01/1963
Control tower: no
ARTCC: MEMPHIS CENTER
FSS: GREENWOOD FLIGHT SERVICE STATION
NOTAMs facility: GWO (NOTAM-D service available)
Attendance: UNATNDD
Wind indicator: lighted
Segmented circle: yes
Lights: SS-SR
Beacon: white-green (lighted land airport)
Operates sunset to sunrise.

Airport Communications

CTAF: 122.9

Airport Services

Parking: tiedowns
Airframe service: NONE
Powerplant service: NONE
Bottled oxygen: NONE
Bulk oxygen: NONE

Runway Information

Runway 1/19

Dimensions: 3000 x 75 ft. / 914 x 23 m
Surface: asphalt, in good condition
Weight bearing capacity: 
Single wheel: 19.5
Runway edge lights: medium intensity
Runway edge markings: RWY MARKINGS FADED.
RUNWAY 1  RUNWAY 19
Traffic pattern: leftleft
Markings: basic, in poor conditionbasic, in poor condition
Visual slope indicator: 2-light PAPI on left (3.00 degrees glide path)2-light PAPI on left (3.00 degrees glide path)
Obstructions: none47 ft. tree, 1209 ft. from runway, 50 ft. left of centerline, 21:1 slope to clear

Airport Ownership and Management from official FAA records

Ownership: Publicly-owned
Owner: ACKERMAN CITY & CHOCTAW CO
119 E MAIN ST, BOX 394
ACKERMAN, MS 39735
Phone 662-285-6251
Manager: STEVE MONTGOMERY
PO BOX 394, 22 E QUINN ST, 214 E QUINN ST
ACKERMAN, MS 39735
Phone 662-285-7633
CHANCERY CLERK; TIM CUTTS, MAYOR, CITY OF ACKERMAN 662-285-6251. JOEY STEPHENSON PRES. CHOCTAW COUNTY BOARD OF SUPERVISORS 662-285-7372.

Airport Operational Statistics

Aircraft based on the field: 2
Single engine airplanes: 2
    
Aircraft operations: avg 75/month *
67% transient general aviation
33% local general aviation
* for 12-month period ending 22 January 2021

Additional Remarks

WILDLIFE ON & INVOF RWY.
FOR CD CTC MEMPHIS ARTCC AT 901-368-8453/8449.

Instrument Procedures

There are no published instrument procedures at 9M4.

Some nearby airports with instrument procedures:

KLMS - Louisville/Winston County Airport (13 nm SE)
KOSX - Kosciusko-Attala County Airport (20 nm SW)
KSTF - George M Bryan Airport (21 nm E)
5A6 - Winona-Montgomery County Airport (27 nm W)
M51 - Oktibbeha Airport (30 nm NE)
 
Loc | Ops | Rwys | IFR | FBO | Links
Com | Nav | Svcs | Stats | Notes
Area around 9M4 (Ackerman Choctaw County Airport)
 
Road maps at: MapQuest Bing Google
 
Aerial photo
WARNING: Photo may not be current or correct
Aerial photo of 9M4 (Ackerman Choctaw County Airport)
Do you have a better or more recent aerial photo of Ackerman Choctaw County Airport that you would like to share? If so, please send us your photo.

 
Sectional chart

 
Airport distance calculator
Flying to Ackerman Choctaw County Airport? Find the distance to fly.

From to 9M4

Sunrise and sunset
Times for 28-Jun-2022
 Local
(UTC-5)
 Zulu
(UTC)
Morning civil twilight05:2210:22
Sunrise05:5110:51
Sunset20:0901:09
Evening civil twilight20:3801:38

Current date and time
Zulu (UTC)  28-Jun-2022 21:02:03
Local (UTC-5)  28-Jun-2022 16:02:03
 
METAR
KSTF 
21nm E 
282055Z AUTO 10004KT 10SM FEW055 BKN070 31/18 A3007 RMK AO2
K5A6 
27nm W 
282055Z AUTO 05006KT 10SM CLR 32/17 A3008 RMK AO2 T03210172
KGTR 
34nm E 
282056Z 21003KT 10SM FEW055 32/19 A3008 RMK AO2 SLP191 T03170189 58020
KNJW 
36nm SE 
281957Z AUTO 02004KT 10SM CLR 29/21 A3014 RMK AO2 SLP117 T02940211 $
TAF
KGTR 
34nm E 
281727Z 2818/2918 07005KT P6SM SCT050 SCT150 FM291200 08005KT P6SM BKN015 FM291600 09005KT P6SM BKN035
NOTAMs
Click for the latest NOTAMs
NOTAMs are issued by the DoD/FAA and will open in a separate window not controlled by AirNav.

 

 
 

Would you like to see your business listed on this page?

 If your business provides an interesting product or service to pilots, flight crews, aircraft, or users of the Ackerman Choctaw County Airport, you should consider listing it here.  To start the listing process, click on the button below
 
Add a business
 

Other Pages about Ackerman Choctaw County Airport

Update a link
 
Copyright © AirNav, LLC. All rights reserved. Privacy Policy  Contact